sensor_id;sensor_type;location;lat;lon;timestamp;pressure;altitude;pressure_sealevel;temperature;humidity
41312;BME280;27061;41.648;24.568;2022-11-22T00:00:25;85124.44;;;6.29;61.82
41312;BME280;27061;41.648;24.568;2022-11-22T00:02:53;85134.00;;;6.36;62.23
41312;BME280;27061;41.648;24.568;2022-11-22T00:05:21;85140.69;;;6.53;60.88
41312;BME280;27061;41.648;24.568;2022-11-22T00:07:47;85113.47;;;6.27;60.04
41312;BME280;27061;41.648;24.568;2022-11-22T00:10:15;85131.78;;;6.50;60.80
41312;BME280;27061;41.648;24.568;2022-11-22T00:12:42;85134.50;;;6.56;60.65
41312;BME280;27061;41.648;24.568;2022-11-22T00:15:11;85089.47;;;6.23;58.98
41312;BME280;27061;41.648;24.568;2022-11-22T00:17:38;85105.16;;;6.33;57.19
41312;BME280;27061;41.648;24.568;2022-11-22T00:20:07;85135.94;;;6.47;58.28
41312;BME280;27061;41.648;24.568;2022-11-22T00:22:36;85142.19;;;6.44;57.50
41312;BME280;27061;41.648;24.568;2022-11-22T00:25:10;85127.78;;;6.39;57.19
41312;BME280;27061;41.648;24.568;2022-11-22T00:27:37;85136.06;;;6.35;56.74
41312;BME280;27061;41.648;24.568;2022-11-22T00:30:04;85142.81;;;6.46;57.59
41312;BME280;27061;41.648;24.568;2022-11-22T00:32:31;85142.19;;;6.42;58.09
41312;BME280;27061;41.648;24.568;2022-11-22T00:34:58;85136.69;;;6.44;56.08
41312;BME280;27061;41.648;24.568;2022-11-22T00:37:25;85127.09;;;6.39;55.21
41312;BME280;27061;41.648;24.568;2022-11-22T00:39:52;85110.19;;;6.14;55.57
41312;BME280;27061;41.648;24.568;2022-11-22T00:42:19;85136.09;;;6.33;55.52
41312;BME280;27061;41.648;24.568;2022-11-22T00:44:46;85132.03;;;6.26;55.09
41312;BME280;27061;41.648;24.568;2022-11-22T00:47:13;85134.75;;;6.30;55.30
41312;BME280;27061;41.648;24.568;2022-11-22T00:49:40;85136.13;;;6.29;55.72
41312;BME280;27061;41.648;24.568;2022-11-22T00:52:07;85125.34;;;6.05;55.99
41312;BME280;27061;41.648;24.568;2022-11-22T00:54:34;85141.91;;;5.99;56.51
41312;BME280;27061;41.648;24.568;2022-11-22T00:57:01;85105.00;;;5.73;57.07
41312;BME280;27061;41.648;24.568;2022-11-22T00:59:28;85139.81;;;6.01;55.98
41312;BME280;27061;41.648;24.568;2022-11-22T01:01:56;85110.53;;;5.69;56.63
41312;BME280;27061;41.648;24.568;2022-11-22T01:04:23;85135.81;;;5.88;57.15
41312;BME280;27061;41.648;24.568;2022-11-22T01:06:50;85121.47;;;5.73;56.77
41312;BME280;27061;41.648;24.568;2022-11-22T01:09:19;85128.28;;;5.82;56.53
41312;BME280;27061;41.648;24.568;2022-11-22T01:11:47;85154.25;;;6.02;55.34
41312;BME280;27061;41.648;24.568;2022-11-22T01:14:15;85141.97;;;5.86;55.63
41312;BME280;27061;41.648;24.568;2022-11-22T01:16:42;85135.16;;;5.79;56.58
41312;BME280;27061;41.648;24.568;2022-11-22T01:19:10;85128.50;;;5.54;54.71
41312;BME280;27061;41.648;24.568;2022-11-22T01:21:37;85109.41;;;5.34;55.24
41312;BME280;27061;41.648;24.568;2022-11-22T01:24:04;85151.66;;;5.75;57.08
41312;BME280;27061;41.648;24.568;2022-11-22T01:26:32;85094.94;;;5.41;57.81
41312;BME280;27061;41.648;24.568;2022-11-22T01:28:59;85090.97;;;5.22;57.55
41312;BME280;27061;41.648;24.568;2022-11-22T01:31:26;85130.13;;;5.14;58.13
41312;BME280;27061;41.648;24.568;2022-11-22T01:33:56;85131.41;;;5.30;57.30
41312;BME280;27061;41.648;24.568;2022-11-22T01:36:25;85157.38;;;5.47;56.80
41312;BME280;27061;41.648;24.568;2022-11-22T01:38:53;85142.38;;;5.32;58.05
41312;BME280;27061;41.648;24.568;2022-11-22T01:41:20;85119.28;;;4.96;58.97
41312;BME280;27061;41.648;24.568;2022-11-22T01:43:47;85135.56;;;5.25;59.01
41312;BME280;27061;41.648;24.568;2022-11-22T01:46:31;85121.81;;;5.27;59.05
41312;BME280;27061;41.648;24.568;2022-11-22T01:49:03;85130.69;;;5.37;57.86
41312;BME280;27061;41.648;24.568;2022-11-22T01:51:36;85123.91;;;5.24;56.33
41312;BME280;27061;41.648;24.568;2022-11-22T01:54:08;85133.41;;;5.37;56.20
41312;BME280;27061;41.648;24.568;2022-11-22T01:56:37;85113.03;;;5.06;57.41
41312;BME280;27061;41.648;24.568;2022-11-22T01:59:08;85128.03;;;5.21;57.62
41312;BME280;27061;41.648;24.568;2022-11-22T02:01:39;85120.53;;;5.15;57.39
41312;BME280;27061;41.648;24.568;2022-11-22T02:04:08;85128.69;;;5.24;57.03
41312;BME280;27061;41.648;24.568;2022-11-22T02:06:56;85152.66;;;5.31;58.08
41312;BME280;27061;41.648;24.568;2022-11-22T02:09:26;85106.22;;;4.99;58.55
41312;BME280;27061;41.648;24.568;2022-11-22T02:11:56;85123.28;;;5.13;57.37
41312;BME280;27061;41.648;24.568;2022-11-22T02:14:26;85136.94;;;5.22;57.72
41312;BME280;27061;41.648;24.568;2022-11-22T02:16:54;85083.03;;;4.75;58.26
41312;BME280;27061;41.648;24.568;2022-11-22T02:19:44;85146.53;;;5.27;58.47
41312;BME280;27061;41.648;24.568;2022-11-22T02:24:58;85148.59;;;5.22;58.58
41312;BME280;27061;41.648;24.568;2022-11-22T02:27:28;85115.81;;;5.00;58.88
41312;BME280;27061;41.648;24.568;2022-11-22T02:29:55;85119.97;;;4.95;57.98
41312;BME280;27061;41.648;24.568;2022-11-22T02:32:22;85124.75;;;4.92;57.89
41312;BME280;27061;41.648;24.568;2022-11-22T02:34:50;85156.19;;;5.11;58.33
41312;BME280;27061;41.648;24.568;2022-11-22T02:37:21;85111.84;;;4.70;59.18
41312;BME280;27061;41.648;24.568;2022-11-22T02:39:55;85121.44;;;4.67;58.74
41312;BME280;27061;41.648;24.568;2022-11-22T02:42:24;85146.75;;;4.82;59.48
41312;BME280;27061;41.648;24.568;2022-11-22T02:44:51;85127.59;;;4.72;59.92
41312;BME280;27061;41.648;24.568;2022-11-22T02:47:18;85126.94;;;4.71;59.30
41312;BME280;27061;41.648;24.568;2022-11-22T02:49:45;85155.63;;;4.89;59.99
41312;BME280;27061;41.648;24.568;2022-11-22T02:52:16;85140.63;;;4.73;60.13
41312;BME280;27061;41.648;24.568;2022-11-22T02:54:44;85157.72;;;4.82;60.37
41312;BME280;27061;41.648;24.568;2022-11-22T02:57:12;85162.47;;;4.94;59.85
41312;BME280;27061;41.648;24.568;2022-11-22T02:59:39;85146.13;;;4.71;59.53
41312;BME280;27061;41.648;24.568;2022-11-22T03:02:06;85185.78;;;4.91;59.49
41312;BME280;27061;41.648;24.568;2022-11-22T03:04:33;85167.41;;;4.63;59.55
41312;BME280;27061;41.648;24.568;2022-11-22T03:07:00;85192.69;;;4.79;59.93
41312;BME280;27061;41.648;24.568;2022-11-22T03:09:28;85196.13;;;4.78;60.33
41312;BME280;27061;41.648;24.568;2022-11-22T03:11:55;85180.44;;;4.62;60.57
41312;BME280;27061;41.648;24.568;2022-11-22T03:14:23;85208.47;;;4.83;60.61
41312;BME280;27061;41.648;24.568;2022-11-22T03:16:50;85193.44;;;4.64;59.85
41312;BME280;27061;41.648;24.568;2022-11-22T03:19:17;85186.59;;;4.63;60.30
41312;BME280;27061;41.648;24.568;2022-11-22T03:21:44;85176.31;;;4.61;59.97
41312;BME280;27061;41.648;24.568;2022-11-22T03:24:11;85204.34;;;4.78;59.61
41312;BME280;27061;41.648;24.568;2022-11-22T03:26:38;85190.69;;;4.66;59.96
41312;BME280;27061;41.648;24.568;2022-11-22T03:29:05;85181.13;;;4.59;60.19
41312;BME280;27061;41.648;24.568;2022-11-22T03:31:32;85203.03;;;4.63;59.65
41312;BME280;27061;41.648;24.568;2022-11-22T03:33:59;85192.75;;;4.65;60.06
41312;BME280;27061;41.648;24.568;2022-11-22T03:36:26;85163.38;;;4.35;60.06
41312;BME280;27061;41.648;24.568;2022-11-22T03:38:53;85180.47;;;4.54;58.88
41312;BME280;27061;41.648;24.568;2022-11-22T03:41:20;85157.94;;;4.23;59.36
41312;BME280;27061;41.648;24.568;2022-11-22T03:43:46;85189.41;;;4.38;60.27
41312;BME280;27061;41.648;24.568;2022-11-22T03:46:17;85222.94;;;4.53;60.19
41312;BME280;27061;41.648;24.568;2022-11-22T03:48:45;85199.00;;;4.39;60.84
41312;BME280;27061;41.648;24.568;2022-11-22T03:51:12;85225.00;;;4.51;60.72
41312;BME280;27061;41.648;24.568;2022-11-22T03:53:40;85228.44;;;4.47;60.19
41312;BME280;27061;41.648;24.568;2022-11-22T03:56:07;85225.00;;;4.49;60.56
41312;BME280;27061;41.648;24.568;2022-11-22T03:58:34;85197.63;;;4.30;59.24
41312;BME280;27061;41.648;24.568;2022-11-22T04:01:00;85199.00;;;4.25;59.47
41312;BME280;27061;41.648;24.568;2022-11-22T04:03:28;85193.56;;;4.19;60.12
41312;BME280;27061;41.648;24.568;2022-11-22T04:05:55;85222.28;;;4.45;60.97
41312;BME280;27061;41.648;24.568;2022-11-22T04:08:22;85214.75;;;4.43;59.87
41312;BME280;27061;41.648;24.568;2022-11-22T04:10:50;85184.66;;;4.21;59.98
41312;BME280;27061;41.648;24.568;2022-11-22T04:13:17;85209.97;;;4.27;59.90
41312;BME280;27061;41.648;24.568;2022-11-22T04:15:45;85201.06;;;4.25;59.69
41312;BME280;27061;41.648;24.568;2022-11-22T04:18:12;85197.69;;;3.76;60.62
41312;BME280;27061;41.648;24.568;2022-11-22T04:20:40;85231.25;;;4.00;60.77
41312;BME280;27061;41.648;24.568;2022-11-22T04:23:26;85175.81;;;3.70;61.28
41312;BME280;27061;41.648;24.568;2022-11-22T04:25:59;85173.75;;;3.76;61.28
41312;BME280;27061;41.648;24.568;2022-11-22T04:28:26;85166.88;;;3.71;60.92
41312;BME280;27061;41.648;24.568;2022-11-22T04:31:13;85189.47;;;3.76;60.94
41312;BME280;27061;41.648;24.568;2022-11-22T04:33:58;85215.50;;;3.87;60.91
41312;BME280;27061;41.648;24.568;2022-11-22T04:36:25;85238.75;;;4.08;60.94
41312;BME280;27061;41.648;24.568;2022-11-22T04:38:52;85189.47;;;3.72;61.06
41312;BME280;27061;41.648;24.568;2022-11-22T04:41:19;85223.00;;;3.92;60.52
41312;BME280;27061;41.648;24.568;2022-11-22T04:43:46;85208.63;;;3.82;60.01
41312;BME280;27061;41.648;24.568;2022-11-22T04:46:32;85212.06;;;3.78;59.97
41312;BME280;27061;41.648;24.568;2022-11-22T04:48:59;85225.06;;;3.76;58.95
41312;BME280;27061;41.648;24.568;2022-11-22T04:51:26;85218.22;;;3.64;59.40
41312;BME280;27061;41.648;24.568;2022-11-22T04:54:11;85268.22;;;4.01;59.85
41312;BME280;27061;41.648;24.568;2022-11-22T04:56:38;85229.19;;;3.68;59.97
41312;BME280;27061;41.648;24.568;2022-11-22T04:59:05;85243.56;;;3.79;60.21
41312;BME280;27061;41.648;24.568;2022-11-22T05:01:32;85268.91;;;3.90;58.79
41312;BME280;27061;41.648;24.568;2022-11-22T05:03:59;85293.53;;;3.98;58.75
41312;BME280;27061;41.648;24.568;2022-11-22T05:06:26;85306.56;;;4.01;58.39
41312;BME280;27061;41.648;24.568;2022-11-22T05:08:53;85288.06;;;3.78;58.44
41312;BME280;27061;41.648;24.568;2022-11-22T05:11:20;85329.16;;;3.92;59.42
41312;BME280;27061;41.648;24.568;2022-11-22T05:13:47;85315.44;;;3.84;59.58
41312;BME280;27061;41.648;24.568;2022-11-22T05:16:14;85322.31;;;3.91;59.65
41312;BME280;27061;41.648;24.568;2022-11-22T05:18:41;85330.50;;;3.93;59.66
41312;BME280;27061;41.648;24.568;2022-11-22T05:21:13;85329.13;;;3.94;59.43
41312;BME280;27061;41.648;24.568;2022-11-22T05:23:40;85298.25;;;3.47;59.94
41312;BME280;27061;41.648;24.568;2022-11-22T05:26:40;85323.63;;;3.74;58.91
41312;BME280;27061;41.648;24.568;2022-11-22T05:29:09;85314.69;;;3.61;59.87
41312;BME280;27061;41.648;24.568;2022-11-22T05:31:37;85322.25;;;3.64;60.15
41312;BME280;27061;41.648;24.568;2022-11-22T05:34:05;85305.81;;;3.56;59.54
41312;BME280;27061;41.648;24.568;2022-11-22T05:36:32;85314.03;;;3.66;59.89
41312;BME280;27061;41.648;24.568;2022-11-22T05:39:00;85290.72;;;3.45;59.83
41312;BME280;27061;41.648;24.568;2022-11-22T05:41:27;85314.00;;;3.50;60.47
41312;BME280;27061;41.648;24.568;2022-11-22T05:43:58;85331.84;;;3.67;60.17
41312;BME280;27061;41.648;24.568;2022-11-22T05:46:27;85311.97;;;3.49;59.90
41312;BME280;27061;41.648;24.568;2022-11-22T05:48:55;85348.25;;;3.67;60.59
41312;BME280;27061;41.648;24.568;2022-11-22T05:51:25;85338.63;;;3.52;60.51
41312;BME280;27061;41.648;24.568;2022-11-22T05:53:59;85325.56;;;3.33;61.04
41312;BME280;27061;41.648;24.568;2022-11-22T05:56:26;85300.91;;;3.22;61.41
41312;BME280;27061;41.648;24.568;2022-11-22T05:58:54;85295.44;;;3.16;61.47
41312;BME280;27061;41.648;24.568;2022-11-22T06:01:22;85350.97;;;3.61;61.51
41312;BME280;27061;41.648;24.568;2022-11-22T06:03:50;85351.66;;;3.64;61.65
41312;BME280;27061;41.648;24.568;2022-11-22T06:06:17;85318.03;;;3.29;61.30
41312;BME280;27061;41.648;24.568;2022-11-22T06:08:45;85363.31;;;3.66;61.55
41312;BME280;27061;41.648;24.568;2022-11-22T06:11:16;85368.78;;;3.66;62.19
41312;BME280;27061;41.648;24.568;2022-11-22T06:13:46;85338.63;;;3.54;62.38
41312;BME280;27061;41.648;24.568;2022-11-22T06:16:14;85361.94;;;3.72;62.30
41312;BME280;27061;41.648;24.568;2022-11-22T06:18:41;85366.72;;;3.71;61.42
41312;BME280;27061;41.648;24.568;2022-11-22T06:21:13;85353.69;;;3.55;61.37
41312;BME280;27061;41.648;24.568;2022-11-22T06:23:41;85349.56;;;3.48;61.46
41312;BME280;27061;41.648;24.568;2022-11-22T06:26:12;85382.47;;;3.68;61.68
41312;BME280;27061;41.648;24.568;2022-11-22T06:28:40;85363.94;;;3.51;62.22
41312;BME280;27061;41.648;24.568;2022-11-22T06:31:18;85385.22;;;3.71;62.27
41312;BME280;27061;41.648;24.568;2022-11-22T06:33:46;85352.31;;;3.52;62.60
41312;BME280;27061;41.648;24.568;2022-11-22T06:36:15;85392.78;;;3.80;62.56
41312;BME280;27061;41.648;24.568;2022-11-22T06:38:44;85397.56;;;3.84;62.82
41312;BME280;27061;41.648;24.568;2022-11-22T06:41:13;85397.56;;;3.84;62.43
41312;BME280;27061;41.648;24.568;2022-11-22T06:43:41;85410.59;;;3.85;63.25
41312;BME280;27061;41.648;24.568;2022-11-22T06:46:18;85383.13;;;3.63;63.19
41312;BME280;27061;41.648;24.568;2022-11-22T06:48:46;85377.66;;;3.55;63.63
41312;BME280;27061;41.648;24.568;2022-11-22T06:51:24;85385.19;;;3.64;62.81
41312;BME280;27061;41.648;24.568;2022-11-22T06:53:52;85418.84;;;3.91;60.11
41312;BME280;27061;41.648;24.568;2022-11-22T06:56:30;85428.41;;;3.94;60.63
41312;BME280;27061;41.648;24.568;2022-11-22T06:59:01;85433.16;;;3.82;62.31
41312;BME280;27061;41.648;24.568;2022-11-22T07:01:30;85397.53;;;3.65;62.42
41312;BME280;27061;41.648;24.568;2022-11-22T07:03:58;85433.91;;;3.98;62.35
41312;BME280;27061;41.648;24.568;2022-11-22T07:06:27;85445.53;;;4.03;62.71
41312;BME280;27061;41.648;24.568;2022-11-22T07:08:55;85438.72;;;4.08;62.74
41312;BME280;27061;41.648;24.568;2022-11-22T07:11:24;85446.97;;;4.12;62.87
41312;BME280;27061;41.648;24.568;2022-11-22T07:13:52;85435.34;;;4.20;63.22
41312;BME280;27061;41.648;24.568;2022-11-22T07:16:20;85436.03;;;4.22;63.48
41312;BME280;27061;41.648;24.568;2022-11-22T07:18:48;85422.31;;;4.10;62.10
41312;BME280;27061;41.648;24.568;2022-11-22T07:21:23;85434.66;;;4.27;61.85
41312;BME280;27061;41.648;24.568;2022-11-22T07:23:50;85438.75;;;4.24;62.58
41312;BME280;27061;41.648;24.568;2022-11-22T07:26:19;85379.81;;;3.95;61.11
41312;BME280;27061;41.648;24.568;2022-11-22T07:28:46;85437.44;;;4.41;58.74
41312;BME280;27061;41.648;24.568;2022-11-22T07:31:14;85430.59;;;4.51;60.26
41312;BME280;27061;41.648;24.568;2022-11-22T07:33:42;85384.66;;;4.27;61.45
41312;BME280;27061;41.648;24.568;2022-11-22T07:36:18;85429.91;;;4.64;60.16
41312;BME280;27061;41.648;24.568;2022-11-22T07:38:46;85400.41;;;4.47;58.67
41312;BME280;27061;41.648;24.568;2022-11-22T07:41:15;85429.22;;;4.88;60.01
41312;BME280;27061;41.648;24.568;2022-11-22T07:43:42;85412.09;;;4.84;61.63
41312;BME280;27061;41.648;24.568;2022-11-22T07:46:31;85433.31;;;5.11;61.75
41312;BME280;27061;41.648;24.568;2022-11-22T07:49:00;85392.22;;;4.87;62.34
41312;BME280;27061;41.648;24.568;2022-11-22T07:51:28;85442.91;;;5.35;62.12
41312;BME280;27061;41.648;24.568;2022-11-22T07:53:55;85399.03;;;5.04;58.46
41312;BME280;27061;41.648;24.568;2022-11-22T07:56:22;85438.78;;;5.36;55.34
41312;BME280;27061;41.648;24.568;2022-11-22T07:58:49;85407.94;;;5.29;56.19
41312;BME280;27061;41.648;24.568;2022-11-22T08:01:17;85393.50;;;5.31;56.43
41312;BME280;27061;41.648;24.568;2022-11-22T08:03:45;85423.59;;;5.73;59.45
41312;BME280;27061;41.648;24.568;2022-11-22T08:06:12;85404.38;;;5.69;60.03
41312;BME280;27061;41.648;24.568;2022-11-22T08:08:40;85419.41;;;5.99;61.15
41312;BME280;27061;41.648;24.568;2022-11-22T08:11:07;85393.31;;;5.85;60.98
41312;BME280;27061;41.648;24.568;2022-11-22T08:13:34;85429.59;;;6.22;61.17
41312;BME280;27061;41.648;24.568;2022-11-22T08:16:07;85411.06;;;6.23;59.08
41312;BME280;27061;41.648;24.568;2022-11-22T08:18:36;85395.22;;;6.28;57.38
41312;BME280;27061;41.648;24.568;2022-11-22T08:21:05;85417.75;;;6.54;57.37
41312;BME280;27061;41.648;24.568;2022-11-22T08:23:33;85333.47;;;6.10;56.33
41312;BME280;27061;41.648;24.568;2022-11-22T08:26:00;85369.00;;;6.45;56.47
41312;BME280;27061;41.648;24.568;2022-11-22T08:28:27;85387.44;;;6.65;56.43
41312;BME280;27061;41.648;24.568;2022-11-22T08:31:01;85381.88;;;6.71;56.79
41312;BME280;27061;41.648;24.568;2022-11-22T08:33:29;85389.97;;;6.91;56.89
41312;BME280;27061;41.648;24.568;2022-11-22T08:35:55;85392.00;;;6.96;56.93
41312;BME280;27061;41.648;24.568;2022-11-22T08:38:22;85386.47;;;7.01;55.73
41312;BME280;27061;41.648;24.568;2022-11-22T08:40:52;85380.94;;;7.05;50.22
41312;BME280;27061;41.648;24.568;2022-11-22T08:43:19;85365.81;;;7.04;49.92
41312;BME280;27061;41.648;24.568;2022-11-22T08:45:48;85353.44;;;7.01;51.95
41312;BME280;27061;41.648;24.568;2022-11-22T08:48:15;85356.84;;;7.03;52.19
41312;BME280;27061;41.648;24.568;2022-11-22T08:51:08;85380.69;;;7.31;52.24
41312;BME280;27061;41.648;24.568;2022-11-22T08:53:38;85359.47;;;7.19;52.93
41312;BME280;27061;41.648;24.568;2022-11-22T08:56:06;85375.75;;;7.44;47.56
41312;BME280;27061;41.648;24.568;2022-11-22T08:58:35;85378.44;;;7.52;48.24
41312;BME280;27061;41.648;24.568;2022-11-22T09:03:32;85358.28;;;7.69;48.54
41312;BME280;27061;41.648;24.568;2022-11-22T09:06:05;85344.03;;;7.51;47.44
41312;BME280;27061;41.648;24.568;2022-11-22T09:08:52;85350.63;;;7.74;45.81
41312;BME280;27061;41.648;24.568;2022-11-22T09:11:39;85350.59;;;7.80;46.74
41312;BME280;27061;41.648;24.568;2022-11-22T09:14:06;85357.41;;;7.85;48.45
41312;BME280;27061;41.648;24.568;2022-11-22T09:16:33;85330.53;;;7.86;48.94
41312;BME280;27061;41.648;24.568;2022-11-22T09:19:00;85359.22;;;8.07;47.70
41312;BME280;27061;41.648;24.568;2022-11-22T09:21:27;85344.66;;;8.15;43.30
41312;BME280;27061;41.648;24.568;2022-11-22T09:23:54;85341.91;;;8.15;48.99
41312;BME280;27061;41.648;24.568;2022-11-22T09:26:22;85340.44;;;8.22;47.79
41312;BME280;27061;41.648;24.568;2022-11-22T09:28:51;85314.34;;;8.15;46.06
41312;BME280;27061;41.648;24.568;2022-11-22T09:31:22;85329.31;;;8.28;36.87
41312;BME280;27061;41.648;24.568;2022-11-22T09:33:50;85332.69;;;8.36;44.25
41312;BME280;27061;41.648;24.568;2022-11-22T09:36:20;85322.50;;;8.23;42.98
41312;BME280;27061;41.648;24.568;2022-11-22T09:38:47;85334.53;;;8.52;36.71
41312;BME280;27061;41.648;24.568;2022-11-22T09:52:06;85330.41;;;8.51;31.84
41312;BME280;27061;41.648;24.568;2022-11-22T09:54:46;85337.94;;;8.57;34.44
41312;BME280;27061;41.648;24.568;2022-11-22T09:57:22;85338.66;;;8.53;34.30
41312;BME280;27061;41.648;24.568;2022-11-22T10:00:01;85346.34;;;8.47;33.88
41312;BME280;27061;41.648;24.568;2022-11-22T10:02:42;85351.94;;;8.38;34.08
41312;BME280;27061;41.648;24.568;2022-11-22T10:05:42;85329.44;;;8.18;34.15
41312;BME280;27061;41.648;24.568;2022-11-22T10:11:13;85319.56;;;7.84;32.36
41312;BME280;27061;41.648;24.568;2022-11-22T10:13:51;85329.94;;;7.77;32.62
41312;BME280;27061;41.648;24.568;2022-11-22T10:16:52;85356.53;;;8.01;32.41
41312;BME280;27061;41.648;24.568;2022-11-22T10:19:28;85325.16;;;7.73;33.07
41312;BME280;27061;41.648;24.568;2022-11-22T10:22:00;85299.09;;;7.64;34.85
41312;BME280;27061;41.648;24.568;2022-11-22T10:24:27;85342.06;;;8.02;35.32
41312;BME280;27061;41.648;24.568;2022-11-22T10:26:56;85329.09;;;7.93;34.63
41312;BME280;27061;41.648;24.568;2022-11-22T10:32:23;85322.94;;;7.88;33.58
41312;BME280;27061;41.648;24.568;2022-11-22T10:40:49;85305.03;;;7.87;35.22
41312;BME280;27061;41.648;24.568;2022-11-22T10:43:35;85289.41;;;7.69;32.17
41312;BME280;27061;41.648;24.568;2022-11-22T10:52:12;85329.91;;;7.81;33.37
41312;BME280;27061;41.648;24.568;2022-11-22T10:54:58;85313.38;;;7.81;35.09
41312;BME280;27061;41.648;24.568;2022-11-22T11:05:45;85305.53;;;8.02;34.57
41312;BME280;27061;41.648;24.568;2022-11-22T11:08:44;85313.06;;;8.05;34.34
41312;BME280;27061;41.648;24.568;2022-11-22T11:11:32;85299.38;;;7.99;35.07
41312;BME280;27061;41.648;24.568;2022-11-22T11:14:11;85306.84;;;8.07;31.81
41312;BME280;27061;41.648;24.568;2022-11-22T11:16:43;85286.72;;;8.17;35.25
41312;BME280;27061;41.648;24.568;2022-11-22T11:21:41;85296.44;;;8.14;36.94
41312;BME280;27061;41.648;24.568;2022-11-22T11:24:15;85292.09;;;8.27;38.02
41312;BME280;27061;41.648;24.568;2022-11-22T11:26:51;85227.97;;;7.79;37.46
41312;BME280;27061;41.648;24.568;2022-11-22T11:29:30;85285.94;;;8.26;37.13
41312;BME280;27061;41.648;24.568;2022-11-22T11:32:09;85280.25;;;8.38;33.84
41312;BME280;27061;41.648;24.568;2022-11-22T11:34:39;85291.47;;;8.24;34.68
41312;BME280;27061;41.648;24.568;2022-11-22T11:37:16;85298.13;;;8.41;34.14
41312;BME280;27061;41.648;24.568;2022-11-22T11:39:47;85291.78;;;8.51;34.31
41312;BME280;27061;41.648;24.568;2022-11-22T11:42:28;85299.22;;;8.61;35.65
41312;BME280;27061;41.648;24.568;2022-11-22T11:45:19;85294.50;;;8.55;33.39
41312;BME280;27061;41.648;24.568;2022-11-22T11:47:52;85280.47;;;8.20;33.77
41312;BME280;27061;41.648;24.568;2022-11-22T11:50:23;85309.75;;;8.48;34.41
41312;BME280;27061;41.648;24.568;2022-11-22T11:52:54;85307.13;;;8.40;34.01
41312;BME280;27061;41.648;24.568;2022-11-22T11:55:22;85295.19;;;8.54;34.11
41312;BME280;27061;41.648;24.568;2022-11-22T11:57:50;85278.81;;;8.41;35.86
41312;BME280;27061;41.648;24.568;2022-11-22T12:00:23;85265.88;;;8.32;36.71
41312;BME280;27061;41.648;24.568;2022-11-22T12:02:59;85250.00;;;8.30;35.05
41312;BME280;27061;41.648;24.568;2022-11-22T12:05:30;85189.06;;;8.03;37.88
41312;BME280;27061;41.648;24.568;2022-11-22T12:08:01;85214.81;;;8.35;41.19
41312;BME280;27061;41.648;24.568;2022-11-22T12:13:39;85215.84;;;8.56;38.12
41312;BME280;27061;41.648;24.568;2022-11-22T12:16:32;85237.09;;;8.64;39.28
41312;BME280;27061;41.648;24.568;2022-11-22T12:22:05;85238.06;;;8.89;41.27
41312;BME280;27061;41.648;24.568;2022-11-22T12:24:41;85186.91;;;8.55;41.50
41312;BME280;27061;41.648;24.568;2022-11-22T12:27:31;85218.69;;;8.91;44.10
41312;BME280;27061;41.648;24.568;2022-11-22T12:30:00;85256.53;;;8.99;40.28
41312;BME280;27061;41.648;24.568;2022-11-22T12:32:32;85220.06;;;8.92;39.67
41312;BME280;27061;41.648;24.568;2022-11-22T12:35:10;85222.31;;;8.81;39.55
41312;BME280;27061;41.648;24.568;2022-11-22T12:40:17;85226.06;;;9.05;39.40
41312;BME280;27061;41.648;24.568;2022-11-22T12:42:50;85206.25;;;8.92;41.15
41312;BME280;27061;41.648;24.568;2022-11-22T12:45:27;85241.16;;;9.10;39.71
41312;BME280;27061;41.648;24.568;2022-11-22T12:48:40;85225.91;;;9.13;41.65
41312;BME280;27061;41.648;24.568;2022-11-22T12:51:23;85234.16;;;9.15;43.27
41312;BME280;27061;41.648;24.568;2022-11-22T12:53:56;85226.47;;;8.80;42.67
41312;BME280;27061;41.648;24.568;2022-11-22T12:56:29;85231.53;;;9.09;41.27
41312;BME280;27061;41.648;24.568;2022-11-22T12:59:07;85223.41;;;8.99;40.65
41312;BME280;27061;41.648;24.568;2022-11-22T13:07:06;85203.16;;;8.71;41.15
41312;BME280;27061;41.648;24.568;2022-11-22T13:09:41;85223.53;;;8.91;40.34
41312;BME280;27061;41.648;24.568;2022-11-22T13:12:13;85213.19;;;8.91;40.80
41312;BME280;27061;41.648;24.568;2022-11-22T13:14:47;85197.75;;;8.65;39.44
41312;BME280;27061;41.648;24.568;2022-11-22T13:17:18;85245.06;;;8.84;41.60
41312;BME280;27061;41.648;24.568;2022-11-22T13:19:51;85275.41;;;8.84;39.71
41312;BME280;27061;41.648;24.568;2022-11-22T13:27:50;85191.19;;;7.99;39.49
41312;BME280;27061;41.648;24.568;2022-11-22T13:30:21;85223.31;;;8.17;38.36
41312;BME280;27061;41.648;24.568;2022-11-22T13:32:52;85249.84;;;8.42;40.11
41312;BME280;27061;41.648;24.568;2022-11-22T13:38:05;85246.72;;;8.20;41.62
41312;BME280;27061;41.648;24.568;2022-11-22T13:40:48;85233.72;;;8.12;41.83
41312;BME280;27061;41.648;24.568;2022-11-22T13:45:48;85234.38;;;8.15;43.41
41312;BME280;27061;41.648;24.568;2022-11-22T13:51:09;85231.50;;;8.23;43.57
41312;BME280;27061;41.648;24.568;2022-11-22T13:53:44;85198.00;;;8.04;47.22
41312;BME280;27061;41.648;24.568;2022-11-22T14:06:47;85213.44;;;8.34;45.31
41312;BME280;27061;41.648;24.568;2022-11-22T14:09:35;85213.47;;;8.30;43.52
41312;BME280;27061;41.648;24.568;2022-11-22T14:14:44;85220.97;;;7.86;43.49
41312;BME280;27061;41.648;24.568;2022-11-22T14:23:15;85229.06;;;7.47;46.12
41312;BME280;27061;41.648;24.568;2022-11-22T14:30:56;85215.16;;;7.00;46.48
41312;BME280;27061;41.648;24.568;2022-11-22T14:33:25;85218.81;;;6.78;47.66
41312;BME280;27061;41.648;24.568;2022-11-22T14:38:37;85205.84;;;6.69;47.93
41312;BME280;27061;41.648;24.568;2022-11-22T14:44:08;85200.78;;;6.24;48.99
41312;BME280;27061;41.648;24.568;2022-11-22T14:46:44;85198.75;;;6.16;49.09
41312;BME280;27061;41.648;24.568;2022-11-22T14:51:54;85197.97;;;6.30;49.20
41312;BME280;27061;41.648;24.568;2022-11-22T14:54:25;85167.22;;;6.09;50.27
41312;BME280;27061;41.648;24.568;2022-11-22T14:56:55;85186.97;;;6.28;50.31
41312;BME280;27061;41.648;24.568;2022-11-22T15:16:44;85154.16;;;6.10;52.59
41312;BME280;27061;41.648;24.568;2022-11-22T15:19:35;85210.25;;;6.39;52.69
41312;BME280;27061;41.648;24.568;2022-11-22T15:22:27;85180.16;;;6.23;52.66